sensor_id;sensor_type;location;lat;lon;timestamp;P1;durP1;ratioP1;P2;durP2;ratioP2
52974;SDS011;38839;45.186;5.720;2023-04-15T00:02:14;2.92;;;1.80;;
52974;SDS011;38839;45.186;5.720;2023-04-15T00:04:42;3.03;;;2.10;;
52974;SDS011;38839;45.186;5.720;2023-04-15T00:07:11;3.42;;;1.80;;
52974;SDS011;38839;45.186;5.720;2023-04-15T00:09:37;2.25;;;1.98;;
52974;SDS011;38839;45.186;5.720;2023-04-15T00:12:03;3.83;;;2.30;;
52974;SDS011;38839;45.186;5.720;2023-04-15T00:14:29;4.07;;;2.13;;
52974;SDS011;38839;45.186;5.720;2023-04-15T00:16:55;3.17;;;1.88;;
52974;SDS011;38839;45.186;5.720;2023-04-15T00:19:21;2.78;;;2.03;;
52974;SDS011;38839;45.186;5.720;2023-04-15T00:21:48;3.53;;;2.25;;
52974;SDS011;38839;45.186;5.720;2023-04-15T00:24:13;2.88;;;1.92;;
52974;SDS011;38839;45.186;5.720;2023-04-15T00:26:38;2.20;;;2.00;;
52974;SDS011;38839;45.186;5.720;2023-04-15T00:29:05;2.65;;;1.80;;
52974;SDS011;38839;45.186;5.720;2023-04-15T00:31:30;2.65;;;1.90;;
52974;SDS011;38839;45.186;5.720;2023-04-15T00:33:56;3.45;;;1.85;;
52974;SDS011;38839;45.186;5.720;2023-04-15T00:36:22;2.38;;;1.70;;
52974;SDS011;38839;45.186;5.720;2023-04-15T00:38:48;2.25;;;1.58;;
52974;SDS011;38839;45.186;5.720;2023-04-15T00:41:13;2.83;;;2.00;;
52974;SDS011;38839;45.186;5.720;2023-04-15T00:43:39;3.13;;;1.42;;
52974;SDS011;38839;45.186;5.720;2023-04-15T00:46:04;3.15;;;1.90;;
52974;SDS011;38839;45.186;5.720;2023-04-15T00:48:31;1.58;;;1.40;;
52974;SDS011;38839;45.186;5.720;2023-04-15T00:50:57;2.33;;;1.58;;
52974;SDS011;38839;45.186;5.720;2023-04-15T00:53:23;3.50;;;1.95;;
52974;SDS011;38839;45.186;5.720;2023-04-15T00:55:48;3.83;;;1.90;;
52974;SDS011;38839;45.186;5.720;2023-04-15T00:58:15;2.65;;;1.58;;
52974;SDS011;38839;45.186;5.720;2023-04-15T01:00:41;3.05;;;1.55;;
52974;SDS011;38839;45.186;5.720;2023-04-15T01:03:07;1.60;;;1.50;;
52974;SDS011;38839;45.186;5.720;2023-04-15T01:05:32;2.13;;;1.50;;
52974;SDS011;38839;45.186;5.720;2023-04-15T01:07:58;2.85;;;1.90;;
52974;SDS011;38839;45.186;5.720;2023-04-15T01:10:23;2.95;;;1.90;;
52974;SDS011;38839;45.186;5.720;2023-04-15T01:12:49;2.45;;;1.50;;
52974;SDS011;38839;45.186;5.720;2023-04-15T01:15:15;1.95;;;1.60;;
52974;SDS011;38839;45.186;5.720;2023-04-15T01:17:40;4.07;;;2.25;;
52974;SDS011;38839;45.186;5.720;2023-04-15T01:20:06;2.55;;;1.80;;
52974;SDS011;38839;45.186;5.720;2023-04-15T01:22:34;4.88;;;1.88;;
52974;SDS011;38839;45.186;5.720;2023-04-15T01:25:00;3.55;;;2.22;;
52974;SDS011;38839;45.186;5.720;2023-04-15T01:27:36;2.22;;;1.92;;
52974;SDS011;38839;45.186;5.720;2023-04-15T01:30:05;2.22;;;1.88;;
52974;SDS011;38839;45.186;5.720;2023-04-15T01:32:32;3.28;;;1.90;;
52974;SDS011;38839;45.186;5.720;2023-04-15T01:34:57;3.40;;;2.33;;
52974;SDS011;38839;45.186;5.720;2023-04-15T01:37:22;3.40;;;2.08;;
52974;SDS011;38839;45.186;5.720;2023-04-15T01:39:48;3.42;;;2.30;;
52974;SDS011;38839;45.186;5.720;2023-04-15T01:42:14;4.88;;;2.13;;
52974;SDS011;38839;45.186;5.720;2023-04-15T01:44:39;3.92;;;2.83;;
52974;SDS011;38839;45.186;5.720;2023-04-15T01:47:04;3.78;;;2.25;;
52974;SDS011;38839;45.186;5.720;2023-04-15T01:49:30;2.55;;;1.85;;
52974;SDS011;38839;45.186;5.720;2023-04-15T01:51:56;3.00;;;1.85;;
52974;SDS011;38839;45.186;5.720;2023-04-15T01:54:22;2.20;;;1.90;;
52974;SDS011;38839;45.186;5.720;2023-04-15T01:56:47;3.05;;;2.17;;
52974;SDS011;38839;45.186;5.720;2023-04-15T01:59:12;3.40;;;2.05;;
52974;SDS011;38839;45.186;5.720;2023-04-15T02:01:38;3.80;;;2.17;;
52974;SDS011;38839;45.186;5.720;2023-04-15T02:04:05;3.47;;;1.98;;
52974;SDS011;38839;45.186;5.720;2023-04-15T02:06:31;2.58;;;1.88;;
52974;SDS011;38839;45.186;5.720;2023-04-15T02:08:56;4.40;;;1.90;;
52974;SDS011;38839;45.186;5.720;2023-04-15T02:11:22;2.08;;;1.63;;
52974;SDS011;38839;45.186;5.720;2023-04-15T02:13:48;2.55;;;1.90;;
52974;SDS011;38839;45.186;5.720;2023-04-15T02:16:17;3.70;;;1.60;;
52974;SDS011;38839;45.186;5.720;2023-04-15T02:18:44;3.10;;;2.00;;
52974;SDS011;38839;45.186;5.720;2023-04-15T02:21:11;2.42;;;1.70;;
52974;SDS011;38839;45.186;5.720;2023-04-15T02:23:36;1.90;;;1.70;;
52974;SDS011;38839;45.186;5.720;2023-04-15T02:26:02;3.83;;;1.70;;
52974;SDS011;38839;45.186;5.720;2023-04-15T02:28:27;2.42;;;2.22;;
52974;SDS011;38839;45.186;5.720;2023-04-15T02:30:53;2.22;;;1.35;;
52974;SDS011;38839;45.186;5.720;2023-04-15T02:33:21;3.47;;;1.65;;
52974;SDS011;38839;45.186;5.720;2023-04-15T02:35:46;2.28;;;1.30;;
52974;SDS011;38839;45.186;5.720;2023-04-15T02:38:11;1.92;;;1.45;;
52974;SDS011;38839;45.186;5.720;2023-04-15T02:40:38;2.72;;;1.80;;
52974;SDS011;38839;45.186;5.720;2023-04-15T02:43:04;1.90;;;1.40;;
52974;SDS011;38839;45.186;5.720;2023-04-15T02:45:31;1.42;;;1.10;;
52974;SDS011;38839;45.186;5.720;2023-04-15T02:47:57;1.98;;;0.93;;
52974;SDS011;38839;45.186;5.720;2023-04-15T02:50:22;0.80;;;0.80;;
52974;SDS011;38839;45.186;5.720;2023-04-15T02:52:49;0.82;;;0.73;;
52974;SDS011;38839;45.186;5.720;2023-04-15T02:55:15;0.63;;;0.60;;
52974;SDS011;38839;45.186;5.720;2023-04-15T02:57:42;2.05;;;0.57;;
52974;SDS011;38839;45.186;5.720;2023-04-15T03:00:08;0.70;;;0.60;;
52974;SDS011;38839;45.186;5.720;2023-04-15T03:02:35;1.13;;;0.80;;
52974;SDS011;38839;45.186;5.720;2023-04-15T03:05:02;1.25;;;0.90;;
52974;SDS011;38839;45.186;5.720;2023-04-15T03:07:28;1.70;;;0.80;;
52974;SDS011;38839;45.186;5.720;2023-04-15T03:09:53;1.02;;;0.75;;
52974;SDS011;38839;45.186;5.720;2023-04-15T03:12:19;1.25;;;1.05;;
52974;SDS011;38839;45.186;5.720;2023-04-15T03:14:44;0.68;;;0.68;;
52974;SDS011;38839;45.186;5.720;2023-04-15T03:17:10;3.55;;;0.80;;
52974;SDS011;38839;45.186;5.720;2023-04-15T03:19:36;1.08;;;0.90;;
52974;SDS011;38839;45.186;5.720;2023-04-15T03:22:01;0.65;;;0.65;;
52974;SDS011;38839;45.186;5.720;2023-04-15T03:24:26;0.80;;;0.80;;
52974;SDS011;38839;45.186;5.720;2023-04-15T03:26:53;1.25;;;0.93;;
52974;SDS011;38839;45.186;5.720;2023-04-15T03:29:19;1.30;;;1.00;;
52974;SDS011;38839;45.186;5.720;2023-04-15T03:31:44;1.52;;;1.00;;
52974;SDS011;38839;45.186;5.720;2023-04-15T03:34:10;1.60;;;0.90;;
52974;SDS011;38839;45.186;5.720;2023-04-15T03:36:35;1.27;;;0.93;;
52974;SDS011;38839;45.186;5.720;2023-04-15T03:39:01;1.20;;;0.88;;
52974;SDS011;38839;45.186;5.720;2023-04-15T03:41:27;1.15;;;0.90;;
52974;SDS011;38839;45.186;5.720;2023-04-15T03:43:52;2.25;;;1.10;;
52974;SDS011;38839;45.186;5.720;2023-04-15T03:46:18;1.27;;;0.90;;
52974;SDS011;38839;45.186;5.720;2023-04-15T03:48:44;1.10;;;1.00;;
52974;SDS011;38839;45.186;5.720;2023-04-15T03:51:09;1.30;;;1.15;;
52974;SDS011;38839;45.186;5.720;2023-04-15T03:53:35;1.38;;;1.15;;
52974;SDS011;38839;45.186;5.720;2023-04-15T03:56:01;1.98;;;1.13;;
52974;SDS011;38839;45.186;5.720;2023-04-15T03:58:26;2.35;;;1.20;;
52974;SDS011;38839;45.186;5.720;2023-04-15T04:00:51;1.17;;;0.98;;
52974;SDS011;38839;45.186;5.720;2023-04-15T04:03:17;2.53;;;0.80;;
52974;SDS011;38839;45.186;5.720;2023-04-15T04:05:42;2.33;;;1.20;;
52974;SDS011;38839;45.186;5.720;2023-04-15T04:08:08;1.52;;;1.30;;
52974;SDS011;38839;45.186;5.720;2023-04-15T04:10:34;1.45;;;1.13;;
52974;SDS011;38839;45.186;5.720;2023-04-15T04:12:59;2.05;;;1.30;;
52974;SDS011;38839;45.186;5.720;2023-04-15T04:15:25;2.50;;;1.40;;
52974;SDS011;38839;45.186;5.720;2023-04-15T04:17:51;1.92;;;1.50;;
52974;SDS011;38839;45.186;5.720;2023-04-15T04:20:16;2.25;;;1.60;;
52974;SDS011;38839;45.186;5.720;2023-04-15T04:22:42;2.35;;;1.33;;
52974;SDS011;38839;45.186;5.720;2023-04-15T04:25:07;1.52;;;1.40;;
52974;SDS011;38839;45.186;5.720;2023-04-15T04:27:34;2.00;;;1.50;;
52974;SDS011;38839;45.186;5.720;2023-04-15T04:29:59;1.85;;;1.52;;
52974;SDS011;38839;45.186;5.720;2023-04-15T04:32:25;2.22;;;1.60;;
52974;SDS011;38839;45.186;5.720;2023-04-15T04:34:51;2.08;;;1.67;;
52974;SDS011;38839;45.186;5.720;2023-04-15T04:37:16;3.00;;;1.77;;
52974;SDS011;38839;45.186;5.720;2023-04-15T04:39:42;3.08;;;1.77;;
52974;SDS011;38839;45.186;5.720;2023-04-15T04:42:07;3.97;;;1.55;;
52974;SDS011;38839;45.186;5.720;2023-04-15T04:44:33;3.60;;;1.50;;
52974;SDS011;38839;45.186;5.720;2023-04-15T04:46:58;2.03;;;1.50;;
52974;SDS011;38839;45.186;5.720;2023-04-15T04:49:23;3.20;;;1.90;;
52974;SDS011;38839;45.186;5.720;2023-04-15T04:51:49;2.00;;;1.80;;
52974;SDS011;38839;45.186;5.720;2023-04-15T04:54:14;1.48;;;1.30;;
52974;SDS011;38839;45.186;5.720;2023-04-15T04:56:40;2.83;;;1.63;;
52974;SDS011;38839;45.186;5.720;2023-04-15T04:59:05;1.85;;;1.58;;
52974;SDS011;38839;45.186;5.720;2023-04-15T05:01:31;3.58;;;1.83;;
52974;SDS011;38839;45.186;5.720;2023-04-15T05:03:57;1.65;;;1.40;;
52974;SDS011;38839;45.186;5.720;2023-04-15T05:06:24;2.30;;;1.40;;
52974;SDS011;38839;45.186;5.720;2023-04-15T05:08:50;1.63;;;1.52;;
52974;SDS011;38839;45.186;5.720;2023-04-15T05:11:15;1.85;;;1.75;;
52974;SDS011;38839;45.186;5.720;2023-04-15T05:13:41;3.45;;;1.75;;
52974;SDS011;38839;45.186;5.720;2023-04-15T05:16:07;1.67;;;1.48;;
52974;SDS011;38839;45.186;5.720;2023-04-15T05:18:33;1.83;;;1.58;;
52974;SDS011;38839;45.186;5.720;2023-04-15T05:20:58;2.30;;;1.63;;
52974;SDS011;38839;45.186;5.720;2023-04-15T05:23:24;1.58;;;1.38;;
52974;SDS011;38839;45.186;5.720;2023-04-15T05:25:50;2.58;;;1.80;;
52974;SDS011;38839;45.186;5.720;2023-04-15T05:28:16;2.75;;;1.73;;
52974;SDS011;38839;45.186;5.720;2023-04-15T05:30:41;2.65;;;1.50;;
52974;SDS011;38839;45.186;5.720;2023-04-15T05:33:07;2.20;;;1.48;;
52974;SDS011;38839;45.186;5.720;2023-04-15T05:35:33;1.52;;;1.40;;
52974;SDS011;38839;45.186;5.720;2023-04-15T05:37:58;3.72;;;1.60;;
52974;SDS011;38839;45.186;5.720;2023-04-15T05:40:23;2.20;;;1.38;;
52974;SDS011;38839;45.186;5.720;2023-04-15T05:42:49;2.80;;;1.52;;
52974;SDS011;38839;45.186;5.720;2023-04-15T05:45:14;1.88;;;1.50;;
52974;SDS011;38839;45.186;5.720;2023-04-15T05:47:39;2.53;;;1.63;;
52974;SDS011;38839;45.186;5.720;2023-04-15T05:50:05;2.85;;;1.67;;
52974;SDS011;38839;45.186;5.720;2023-04-15T05:52:31;2.13;;;1.58;;
52974;SDS011;38839;45.186;5.720;2023-04-15T05:54:56;3.83;;;1.70;;
52974;SDS011;38839;45.186;5.720;2023-04-15T05:57:22;4.65;;;2.17;;
52974;SDS011;38839;45.186;5.720;2023-04-15T05:59:47;2.38;;;1.65;;
52974;SDS011;38839;45.186;5.720;2023-04-15T06:02:13;1.85;;;1.67;;
52974;SDS011;38839;45.186;5.720;2023-04-15T06:04:38;2.85;;;1.73;;
52974;SDS011;38839;45.186;5.720;2023-04-15T06:07:04;3.25;;;1.50;;
52974;SDS011;38839;45.186;5.720;2023-04-15T06:09:30;3.22;;;1.80;;
52974;SDS011;38839;45.186;5.720;2023-04-15T06:11:55;1.95;;;1.55;;
52974;SDS011;38839;45.186;5.720;2023-04-15T06:14:21;2.35;;;1.33;;
52974;SDS011;38839;45.186;5.720;2023-04-15T06:16:47;2.00;;;1.50;;
52974;SDS011;38839;45.186;5.720;2023-04-15T06:19:13;1.73;;;1.23;;
52974;SDS011;38839;45.186;5.720;2023-04-15T06:21:38;2.92;;;1.58;;
52974;SDS011;38839;45.186;5.720;2023-04-15T06:24:04;3.42;;;1.10;;
52974;SDS011;38839;45.186;5.720;2023-04-15T06:26:29;2.13;;;1.00;;
52974;SDS011;38839;45.186;5.720;2023-04-15T06:28:55;1.30;;;1.17;;
52974;SDS011;38839;45.186;5.720;2023-04-15T06:31:21;1.75;;;1.08;;
52974;SDS011;38839;45.186;5.720;2023-04-15T06:33:46;2.28;;;1.20;;
52974;SDS011;38839;45.186;5.720;2023-04-15T06:36:12;1.33;;;1.10;;
52974;SDS011;38839;45.186;5.720;2023-04-15T06:38:37;1.40;;;1.20;;
52974;SDS011;38839;45.186;5.720;2023-04-15T06:41:03;2.25;;;1.40;;
52974;SDS011;38839;45.186;5.720;2023-04-15T06:43:29;2.33;;;1.15;;
52974;SDS011;38839;45.186;5.720;2023-04-15T06:45:54;1.70;;;1.30;;
52974;SDS011;38839;45.186;5.720;2023-04-15T06:48:20;1.20;;;1.10;;
52974;SDS011;38839;45.186;5.720;2023-04-15T06:50:46;2.03;;;1.17;;
52974;SDS011;38839;45.186;5.720;2023-04-15T06:53:12;2.33;;;1.40;;
52974;SDS011;38839;45.186;5.720;2023-04-15T06:55:38;1.40;;;1.30;;
52974;SDS011;38839;45.186;5.720;2023-04-15T06:58:04;2.00;;;1.48;;
52974;SDS011;38839;45.186;5.720;2023-04-15T07:00:29;1.45;;;1.35;;
52974;SDS011;38839;45.186;5.720;2023-04-15T07:02:55;2.20;;;1.30;;
52974;SDS011;38839;45.186;5.720;2023-04-15T07:05:21;1.83;;;1.40;;
52974;SDS011;38839;45.186;5.720;2023-04-15T07:07:46;2.97;;;1.35;;
52974;SDS011;38839;45.186;5.720;2023-04-15T07:10:11;2.97;;;1.08;;
52974;SDS011;38839;45.186;5.720;2023-04-15T07:12:38;1.75;;;1.20;;
52974;SDS011;38839;45.186;5.720;2023-04-15T07:15:04;1.80;;;1.20;;
52974;SDS011;38839;45.186;5.720;2023-04-15T07:17:30;2.67;;;1.60;;
52974;SDS011;38839;45.186;5.720;2023-04-15T07:19:56;2.67;;;1.27;;
52974;SDS011;38839;45.186;5.720;2023-04-15T07:22:21;2.95;;;2.00;;
52974;SDS011;38839;45.186;5.720;2023-04-15T07:24:47;1.67;;;1.30;;
52974;SDS011;38839;45.186;5.720;2023-04-15T07:27:12;2.28;;;1.10;;
52974;SDS011;38839;45.186;5.720;2023-04-15T07:29:37;2.55;;;1.40;;
52974;SDS011;38839;45.186;5.720;2023-04-15T07:32:03;1.73;;;1.23;;
52974;SDS011;38839;45.186;5.720;2023-04-15T07:34:28;2.25;;;1.90;;
52974;SDS011;38839;45.186;5.720;2023-04-15T07:36:54;1.80;;;1.70;;
52974;SDS011;38839;45.186;5.720;2023-04-15T07:39:19;2.63;;;1.70;;
52974;SDS011;38839;45.186;5.720;2023-04-15T07:41:45;1.40;;;1.30;;
52974;SDS011;38839;45.186;5.720;2023-04-15T07:44:10;2.28;;;1.35;;
52974;SDS011;38839;45.186;5.720;2023-04-15T07:46:36;1.35;;;1.23;;
52974;SDS011;38839;45.186;5.720;2023-04-15T07:49:02;2.03;;;1.27;;
52974;SDS011;38839;45.186;5.720;2023-04-15T07:51:27;2.97;;;1.40;;
52974;SDS011;38839;45.186;5.720;2023-04-15T07:53:53;1.38;;;1.00;;
52974;SDS011;38839;45.186;5.720;2023-04-15T07:56:19;1.35;;;0.70;;
52974;SDS011;38839;45.186;5.720;2023-04-15T07:58:44;0.45;;;0.20;;
52974;SDS011;38839;45.186;5.720;2023-04-15T08:01:10;1.23;;;0.30;;
52974;SDS011;38839;45.186;5.720;2023-04-15T08:03:35;1.15;;;0.20;;
52974;SDS011;38839;45.186;5.720;2023-04-15T08:06:01;0.88;;;0.20;;
52974;SDS011;38839;45.186;5.720;2023-04-15T08:08:27;0.73;;;0.32;;
52974;SDS011;38839;45.186;5.720;2023-04-15T08:10:52;0.50;;;0.40;;
52974;SDS011;38839;45.186;5.720;2023-04-15T08:13:18;1.02;;;0.40;;
52974;SDS011;38839;45.186;5.720;2023-04-15T08:15:43;1.58;;;0.30;;
52974;SDS011;38839;45.186;5.720;2023-04-15T08:18:08;1.63;;;0.50;;
52974;SDS011;38839;45.186;5.720;2023-04-15T08:20:34;0.55;;;0.40;;
52974;SDS011;38839;45.186;5.720;2023-04-15T08:23:00;1.10;;;0.40;;
52974;SDS011;38839;45.186;5.720;2023-04-15T08:25:27;3.72;;;0.45;;
52974;SDS011;38839;45.186;5.720;2023-04-15T08:27:54;0.93;;;0.40;;
52974;SDS011;38839;45.186;5.720;2023-04-15T08:30:21;0.30;;;0.15;;
52974;SDS011;38839;45.186;5.720;2023-04-15T08:32:46;0.57;;;0.55;;
52974;SDS011;38839;45.186;5.720;2023-04-15T08:35:13;1.17;;;0.50;;
52974;SDS011;38839;45.186;5.720;2023-04-15T08:37:39;0.47;;;0.40;;
52974;SDS011;38839;45.186;5.720;2023-04-15T08:40:04;0.50;;;0.30;;
52974;SDS011;38839;45.186;5.720;2023-04-15T08:42:31;0.28;;;0.28;;
52974;SDS011;38839;45.186;5.720;2023-04-15T08:45:02;1.00;;;0.30;;
52974;SDS011;38839;45.186;5.720;2023-04-15T08:47:29;0.90;;;0.20;;
52974;SDS011;38839;45.186;5.720;2023-04-15T08:49:58;0.93;;;0.30;;
52974;SDS011;38839;45.186;5.720;2023-04-15T08:52:26;0.93;;;0.43;;
52974;SDS011;38839;45.186;5.720;2023-04-15T08:54:55;1.70;;;0.30;;
52974;SDS011;38839;45.186;5.720;2023-04-15T08:57:26;0.57;;;0.30;;
52974;SDS011;38839;45.186;5.720;2023-04-15T08:59:53;0.22;;;0.20;;
52974;SDS011;38839;45.186;5.720;2023-04-15T09:02:20;0.90;;;0.32;;
52974;SDS011;38839;45.186;5.720;2023-04-15T09:04:47;1.48;;;0.35;;
52974;SDS011;38839;45.186;5.720;2023-04-15T09:07:12;1.88;;;0.30;;
52974;SDS011;38839;45.186;5.720;2023-04-15T09:09:38;1.58;;;0.40;;
52974;SDS011;38839;45.186;5.720;2023-04-15T09:12:07;0.50;;;0.20;;
52974;SDS011;38839;45.186;5.720;2023-04-15T09:14:33;0.40;;;0.13;;
52974;SDS011;38839;45.186;5.720;2023-04-15T09:16:59;0.77;;;0.30;;
52974;SDS011;38839;45.186;5.720;2023-04-15T09:19:26;1.05;;;0.22;;
52974;SDS011;38839;45.186;5.720;2023-04-15T09:21:55;0.88;;;0.20;;
52974;SDS011;38839;45.186;5.720;2023-04-15T09:24:23;1.02;;;0.60;;
52974;SDS011;38839;45.186;5.720;2023-04-15T09:26:51;0.70;;;0.50;;
52974;SDS011;38839;45.186;5.720;2023-04-15T09:29:18;2.63;;;0.30;;
52974;SDS011;38839;45.186;5.720;2023-04-15T09:31:44;1.52;;;0.30;;
52974;SDS011;38839;45.186;5.720;2023-04-15T09:34:09;1.05;;;0.30;;
52974;SDS011;38839;45.186;5.720;2023-04-15T09:39:15;0.45;;;0.20;;
52974;SDS011;38839;45.186;5.720;2023-04-15T09:41:41;0.63;;;0.30;;
52974;SDS011;38839;45.186;5.720;2023-04-15T09:44:13;0.90;;;0.25;;
52974;SDS011;38839;45.186;5.720;2023-04-15T09:46:46;2.03;;;0.32;;
52974;SDS011;38839;45.186;5.720;2023-04-15T09:49:12;0.98;;;0.25;;
52974;SDS011;38839;45.186;5.720;2023-04-15T09:51:37;0.35;;;0.25;;
52974;SDS011;38839;45.186;5.720;2023-04-15T09:54:03;1.30;;;0.20;;
52974;SDS011;38839;45.186;5.720;2023-04-15T09:56:36;0.35;;;0.15;;
52974;SDS011;38839;45.186;5.720;2023-04-15T09:59:05;0.75;;;0.30;;
52974;SDS011;38839;45.186;5.720;2023-04-15T10:01:34;0.67;;;0.40;;
52974;SDS011;38839;45.186;5.720;2023-04-15T10:04:03;0.63;;;0.30;;
52974;SDS011;38839;45.186;5.720;2023-04-15T10:06:29;1.30;;;0.30;;
52974;SDS011;38839;45.186;5.720;2023-04-15T10:08:58;0.35;;;0.17;;
52974;SDS011;38839;45.186;5.720;2023-04-15T10:11:24;0.30;;;0.20;;
52974;SDS011;38839;45.186;5.720;2023-04-15T10:13:53;1.75;;;0.40;;
52974;SDS011;38839;45.186;5.720;2023-04-15T10:16:20;0.50;;;0.20;;
52974;SDS011;38839;45.186;5.720;2023-04-15T10:18:46;0.40;;;0.30;;
52974;SDS011;38839;45.186;5.720;2023-04-15T10:23:43;0.40;;;0.30;;
52974;SDS011;38839;45.186;5.720;2023-04-15T10:26:10;0.00;;;0.00;;
52974;SDS011;38839;45.186;5.720;2023-04-15T10:28:37;0.80;;;0.25;;
52974;SDS011;38839;45.186;5.720;2023-04-15T10:31:03;0.60;;;0.50;;
52974;SDS011;38839;45.186;5.720;2023-04-15T10:33:30;1.33;;;0.60;;
52974;SDS011;38839;45.186;5.720;2023-04-15T10:35:56;0.30;;;0.30;;
52974;SDS011;38839;45.186;5.720;2023-04-15T10:41:10;1.63;;;1.10;;
52974;SDS011;38839;45.186;5.720;2023-04-15T10:43:51;1.00;;;0.40;;
52974;SDS011;38839;45.186;5.720;2023-04-15T10:46:18;0.77;;;0.38;;
52974;SDS011;38839;45.186;5.720;2023-04-15T10:49:05;0.70;;;0.25;;
52974;SDS011;38839;45.186;5.720;2023-04-15T10:51:41;1.33;;;0.68;;
52974;SDS011;38839;45.186;5.720;2023-04-15T10:54:14;1.20;;;0.75;;
52974;SDS011;38839;45.186;5.720;2023-04-15T10:56:41;0.80;;;0.80;;
52974;SDS011;38839;45.186;5.720;2023-04-15T10:59:08;2.30;;;0.77;;
52974;SDS011;38839;45.186;5.720;2023-04-15T11:12:41;2.25;;;0.60;;
52974;SDS011;38839;45.186;5.720;2023-04-15T11:17:56;2.25;;;0.60;;
52974;SDS011;38839;45.186;5.720;2023-04-15T11:20:23;1.13;;;0.55;;
52974;SDS011;38839;45.186;5.720;2023-04-15T11:22:49;0.73;;;0.50;;
52974;SDS011;38839;45.186;5.720;2023-04-15T11:25:24;1.60;;;0.57;;
52974;SDS011;38839;45.186;5.720;2023-04-15T11:27:54;1.23;;;0.63;;
52974;SDS011;38839;45.186;5.720;2023-04-15T11:30:21;2.08;;;1.00;;
52974;SDS011;38839;45.186;5.720;2023-04-15T11:32:52;1.50;;;0.60;;
52974;SDS011;38839;45.186;5.720;2023-04-15T11:35:19;0.98;;;0.50;;
52974;SDS011;38839;45.186;5.720;2023-04-15T11:37:46;1.38;;;0.70;;
52974;SDS011;38839;45.186;5.720;2023-04-15T11:40:13;0.60;;;0.43;;
52974;SDS011;38839;45.186;5.720;2023-04-15T11:42:41;0.65;;;0.40;;
52974;SDS011;38839;45.186;5.720;2023-04-15T11:45:14;1.55;;;0.75;;
52974;SDS011;38839;45.186;5.720;2023-04-15T11:47:40;1.42;;;0.77;;
52974;SDS011;38839;45.186;5.720;2023-04-15T11:50:13;1.10;;;0.43;;
52974;SDS011;38839;45.186;5.720;2023-04-15T11:52:40;0.20;;;0.15;;
52974;SDS011;38839;45.186;5.720;2023-04-15T11:55:16;0.63;;;0.20;;
52974;SDS011;38839;45.186;5.720;2023-04-15T11:57:41;1.98;;;0.68;;
52974;SDS011;38839;45.186;5.720;2023-04-15T12:00:07;1.08;;;0.40;;
52974;SDS011;38839;45.186;5.720;2023-04-15T12:02:35;0.82;;;0.20;;
52974;SDS011;38839;45.186;5.720;2023-04-15T12:05:04;0.20;;;0.20;;
52974;SDS011;38839;45.186;5.720;2023-04-15T12:07:30;0.38;;;0.38;;
52974;SDS011;38839;45.186;5.720;2023-04-15T12:09:56;0.98;;;0.32;;
52974;SDS011;38839;45.186;5.720;2023-04-15T12:12:28;0.30;;;0.30;;
52974;SDS011;38839;45.186;5.720;2023-04-15T12:14:55;0.10;;;0.10;;
52974;SDS011;38839;45.186;5.720;2023-04-15T12:17:21;0.43;;;0.43;;
52974;SDS011;38839;45.186;5.720;2023-04-15T12:19:47;0.43;;;0.30;;
52974;SDS011;38839;45.186;5.720;2023-04-15T12:22:14;0.90;;;0.50;;
52974;SDS011;38839;45.186;5.720;2023-04-15T12:24:41;0.68;;;0.40;;
52974;SDS011;38839;45.186;5.720;2023-04-15T12:27:11;0.38;;;0.28;;
52974;SDS011;38839;45.186;5.720;2023-04-15T12:29:38;0.20;;;0.20;;
52974;SDS011;38839;45.186;5.720;2023-04-15T12:32:05;0.35;;;0.20;;
52974;SDS011;38839;45.186;5.720;2023-04-15T12:34:35;1.58;;;0.30;;
52974;SDS011;38839;45.186;5.720;2023-04-15T12:37:17;1.50;;;0.20;;
52974;SDS011;38839;45.186;5.720;2023-04-15T12:39:43;0.32;;;0.10;;
52974;SDS011;38839;45.186;5.720;2023-04-15T12:42:11;0.30;;;0.20;;
52974;SDS011;38839;45.186;5.720;2023-04-15T12:44:38;0.40;;;0.15;;
52974;SDS011;38839;45.186;5.720;2023-04-15T12:47:04;0.55;;;0.30;;
52974;SDS011;38839;45.186;5.720;2023-04-15T12:49:30;0.22;;;0.22;;
52974;SDS011;38839;45.186;5.720;2023-04-15T12:51:57;0.40;;;0.40;;
52974;SDS011;38839;45.186;5.720;2023-04-15T12:54:24;1.60;;;0.30;;
52974;SDS011;38839;45.186;5.720;2023-04-15T12:56:51;0.80;;;0.50;;
52974;SDS011;38839;45.186;5.720;2023-04-15T12:59:17;0.20;;;0.10;;
52974;SDS011;38839;45.186;5.720;2023-04-15T13:01:43;0.47;;;0.20;;
52974;SDS011;38839;45.186;5.720;2023-04-15T13:04:08;0.40;;;0.20;;
52974;SDS011;38839;45.186;5.720;2023-04-15T13:06:34;1.88;;;0.28;;
52974;SDS011;38839;45.186;5.720;2023-04-15T13:09:00;0.63;;;0.30;;
52974;SDS011;38839;45.186;5.720;2023-04-15T13:11:27;0.90;;;0.70;;
52974;SDS011;38839;45.186;5.720;2023-04-15T13:13:55;0.50;;;0.38;;
52974;SDS011;38839;45.186;5.720;2023-04-15T13:16:22;0.57;;;0.50;;
52974;SDS011;38839;45.186;5.720;2023-04-15T13:18:48;0.50;;;0.50;;
52974;SDS011;38839;45.186;5.720;2023-04-15T13:21:14;0.80;;;0.50;;
52974;SDS011;38839;45.186;5.720;2023-04-15T13:23:40;1.33;;;0.52;;
52974;SDS011;38839;45.186;5.720;2023-04-15T13:26:06;0.75;;;0.30;;
52974;SDS011;38839;45.186;5.720;2023-04-15T13:28:32;0.20;;;0.20;;
52974;SDS011;38839;45.186;5.720;2023-04-15T13:30:57;0.55;;;0.30;;
52974;SDS011;38839;45.186;5.720;2023-04-15T13:33:24;0.20;;;0.20;;
52974;SDS011;38839;45.186;5.720;2023-04-15T13:35:49;0.38;;;0.20;;
52974;SDS011;38839;45.186;5.720;2023-04-15T13:38:15;1.95;;;0.40;;
52974;SDS011;38839;45.186;5.720;2023-04-15T13:40:40;0.10;;;0.10;;
52974;SDS011;38839;45.186;5.720;2023-04-15T13:43:05;0.50;;;0.10;;
52974;SDS011;38839;45.186;5.720;2023-04-15T13:45:33;0.68;;;0.20;;
52974;SDS011;38839;45.186;5.720;2023-04-15T13:47:58;0.90;;;0.20;;
52974;SDS011;38839;45.186;5.720;2023-04-15T13:50:24;0.20;;;0.20;;
52974;SDS011;38839;45.186;5.720;2023-04-15T13:52:49;0.55;;;0.32;;
52974;SDS011;38839;45.186;5.720;2023-04-15T13:55:15;0.35;;;0.30;;
52974;SDS011;38839;45.186;5.720;2023-04-15T13:57:40;0.52;;;0.30;;
52974;SDS011;38839;45.186;5.720;2023-04-15T14:00:06;0.50;;;0.28;;
52974;SDS011;38839;45.186;5.720;2023-04-15T14:02:32;0.82;;;0.43;;
52974;SDS011;38839;45.186;5.720;2023-04-15T14:04:57;0.25;;;0.25;;
52974;SDS011;38839;45.186;5.720;2023-04-15T14:07:23;0.47;;;0.40;;
52974;SDS011;38839;45.186;5.720;2023-04-15T14:09:48;1.20;;;0.40;;
52974;SDS011;38839;45.186;5.720;2023-04-15T14:12:13;0.32;;;0.32;;
52974;SDS011;38839;45.186;5.720;2023-04-15T14:14:39;0.28;;;0.28;;
52974;SDS011;38839;45.186;5.720;2023-04-15T14:17:05;1.95;;;0.50;;
52974;SDS011;38839;45.186;5.720;2023-04-15T14:19:30;0.40;;;0.25;;
52974;SDS011;38839;45.186;5.720;2023-04-15T14:21:56;0.57;;;0.35;;
52974;SDS011;38839;45.186;5.720;2023-04-15T14:24:22;0.60;;;0.30;;
52974;SDS011;38839;45.186;5.720;2023-04-15T14:26:47;0.75;;;0.45;;
52974;SDS011;38839;45.186;5.720;2023-04-15T14:29:13;1.38;;;0.38;;
52974;SDS011;38839;45.186;5.720;2023-04-15T14:31:38;0.40;;;0.40;;
52974;SDS011;38839;45.186;5.720;2023-04-15T14:34:04;0.57;;;0.50;;
52974;SDS011;38839;45.186;5.720;2023-04-15T14:36:30;0.60;;;0.35;;
52974;SDS011;38839;45.186;5.720;2023-04-15T14:38:55;0.60;;;0.30;;
52974;SDS011;38839;45.186;5.720;2023-04-15T14:41:21;0.30;;;0.17;;
52974;SDS011;38839;45.186;5.720;2023-04-15T14:43:47;0.20;;;0.20;;
52974;SDS011;38839;45.186;5.720;2023-04-15T14:46:12;0.10;;;0.10;;
52974;SDS011;38839;45.186;5.720;2023-04-15T14:48:38;1.45;;;0.20;;
52974;SDS011;38839;45.186;5.720;2023-04-15T14:51:03;0.50;;;0.20;;
52974;SDS011;38839;45.186;5.720;2023-04-15T14:53:29;1.88;;;0.17;;
52974;SDS011;38839;45.186;5.720;2023-04-15T14:55:54;0.47;;;0.30;;
52974;SDS011;38839;45.186;5.720;2023-04-15T14:58:20;0.38;;;0.10;;
52974;SDS011;38839;45.186;5.720;2023-04-15T15:00:46;0.15;;;0.15;;
52974;SDS011;38839;45.186;5.720;2023-04-15T15:03:11;2.92;;;0.20;;
52974;SDS011;38839;45.186;5.720;2023-04-15T15:05:38;1.23;;;0.47;;